createdAt,value
2023-06-19T00:01:49.112Z,53.63
2023-06-19T00:04:16.637Z,53.57
2023-06-19T00:06:43.968Z,53.51
2023-06-19T00:09:11.283Z,53.56
2023-06-19T00:11:38.677Z,53.69
2023-06-19T00:14:06.026Z,53.64
2023-06-19T00:16:33.981Z,53.64
2023-06-19T00:19:01.340Z,53.76
2023-06-19T00:21:28.877Z,53.38
2023-06-19T00:23:56.704Z,53.57
2023-06-19T00:26:24.614Z,53.57
2023-06-19T00:28:55.056Z,53.47
2023-06-19T00:31:23.088Z,53.41
2023-06-19T00:33:51.571Z,53.49
2023-06-19T00:36:22.502Z,53.54
2023-06-19T00:38:50.140Z,53.18
2023-06-19T00:41:18.146Z,53.36
2023-06-19T00:43:45.821Z,53.17
2023-06-19T00:46:13.559Z,53.12
2023-06-19T00:48:41.003Z,53.16
2023-06-19T00:51:08.766Z,52.95
2023-06-19T00:53:36.722Z,53.06
2023-06-19T00:56:04.737Z,52.78
2023-06-19T00:58:32.320Z,52.76
2023-06-19T01:01:08.083Z,52.69
2023-06-19T01:03:37.680Z,52.61
2023-06-19T01:06:15.448Z,52.35
2023-06-19T01:09:06.522Z,52.33
2023-06-19T01:11:39.428Z,52.21
2023-06-19T01:14:19.776Z,52.19
2023-06-19T01:16:48.648Z,51.87
2023-06-19T01:19:21.066Z,52.13
2023-06-19T01:21:51.304Z,52.02
2023-06-19T01:24:18.908Z,52.25
2023-06-19T01:26:46.956Z,51.65
2023-06-19T01:29:16.586Z,51.56
2023-06-19T01:31:59.779Z,51.73
2023-06-19T01:34:29.726Z,51.48
2023-06-19T01:36:58.299Z,51.37
2023-06-19T01:39:26.708Z,51.46
2023-06-19T01:41:56.528Z,51.48
2023-06-19T01:44:25.251Z,51.23
2023-06-19T01:46:52.852Z,51.09
2023-06-19T01:49:20.990Z,51.14
2023-06-19T01:51:48.376Z,51.09
2023-06-19T01:54:15.781Z,51.11
2023-06-19T01:56:43.248Z,50.92
2023-06-19T01:59:10.649Z,51.00
2023-06-19T02:01:38.012Z,51.24
2023-06-19T02:04:05.639Z,51.28
2023-06-19T02:06:33.119Z,51.86
2023-06-19T02:09:00.469Z,51.51
2023-06-19T02:11:27.826Z,51.45
2023-06-19T02:13:55.978Z,51.71
2023-06-19T02:16:23.442Z,51.71
2023-06-19T02:18:50.947Z,51.64
2023-06-19T02:21:18.261Z,51.83
2023-06-19T02:23:45.692Z,51.85
2023-06-19T02:26:13.008Z,51.75
2023-06-19T02:28:40.299Z,51.74
2023-06-19T02:31:07.636Z,51.73
2023-06-19T02:33:34.926Z,51.76
2023-06-19T02:36:02.989Z,51.91
2023-06-19T02:38:30.809Z,51.85
2023-06-19T02:41:04.033Z,51.97
2023-06-19T02:43:31.385Z,51.92
2023-06-19T02:45:58.695Z,51.92
2023-06-19T02:48:25.933Z,51.84
2023-06-19T02:50:54.685Z,51.87
2023-06-19T02:53:22.223Z,51.54
2023-06-19T02:55:49.523Z,51.54
2023-06-19T02:58:16.857Z,51.29
2023-06-19T03:00:44.520Z,51.39
2023-06-19T03:03:12.854Z,51.28
2023-06-19T03:05:40.186Z,51.22
2023-06-19T03:08:08.193Z,51.23
2023-06-19T03:10:36.880Z,50.96
2023-06-19T03:13:04.209Z,51.07
2023-06-19T03:15:33.531Z,50.97
2023-06-19T03:18:04.453Z,51.07
2023-06-19T03:20:32.691Z,50.95
2023-06-19T03:23:03.221Z,50.99
2023-06-19T03:25:35.858Z,50.88
2023-06-19T03:28:04.187Z,50.78
2023-06-19T03:30:31.915Z,50.83
2023-06-19T03:32:59.723Z,50.97
2023-06-19T03:35:41.850Z,50.78
2023-06-19T03:38:13.630Z,50.67
2023-06-19T03:40:42.132Z,50.73
2023-06-19T03:43:12.861Z,50.89
2023-06-19T03:45:40.453Z,50.88
2023-06-19T03:48:07.935Z,50.86
2023-06-19T03:50:35.510Z,50.84
2023-06-19T03:53:03.016Z,50.74
2023-06-19T03:55:30.290Z,50.73
2023-06-19T03:57:57.706Z,50.75
2023-06-19T04:00:25.346Z,50.71
2023-06-19T04:02:53.174Z,50.70
2023-06-19T04:05:21.056Z,50.70
2023-06-19T04:07:48.477Z,50.96
2023-06-19T04:10:16.075Z,50.54
2023-06-19T04:12:43.652Z,50.66
2023-06-19T04:15:11.357Z,50.61
2023-06-19T04:17:38.689Z,50.70
2023-06-19T04:20:13.044Z,50.80
2023-06-19T04:22:41.761Z,50.64
2023-06-19T04:25:11.551Z,50.79
2023-06-19T04:27:39.005Z,51.00
2023-06-19T04:30:21.322Z,51.02
2023-06-19T04:32:48.841Z,50.99
2023-06-19T04:35:16.341Z,50.85
2023-06-19T04:37:43.658Z,50.82
2023-06-19T04:40:12.196Z,51.02
2023-06-19T04:42:41.128Z,51.26
2023-06-19T04:45:09.070Z,51.02
2023-06-19T04:47:51.735Z,51.09
2023-06-19T04:50:20.904Z,51.18
2023-06-19T04:52:51.530Z,51.14
2023-06-19T04:55:19.435Z,51.16
2023-06-19T04:57:46.750Z,51.22
2023-06-19T05:00:16.526Z,51.34
2023-06-19T05:02:46.052Z,51.38
2023-06-19T05:05:13.870Z,51.31
2023-06-19T05:07:41.802Z,51.32
2023-06-19T05:10:10.005Z,51.37
2023-06-19T05:12:37.358Z,51.33
2023-06-19T05:15:05.008Z,51.38
2023-06-19T05:17:32.407Z,51.41
2023-06-19T05:20:00.093Z,51.33
2023-06-19T05:22:28.030Z,51.53
2023-06-19T05:24:55.495Z,51.53
2023-06-19T05:27:22.873Z,51.50
2023-06-19T05:29:50.179Z,51.49
2023-06-19T05:32:17.503Z,51.41
2023-06-19T05:34:44.801Z,51.41
2023-06-19T05:37:12.156Z,51.56
2023-06-19T05:39:39.507Z,51.46
2023-06-19T05:42:07.629Z,51.31
2023-06-19T05:44:34.843Z,51.67
2023-06-19T05:47:02.309Z,51.62
2023-06-19T05:49:30.225Z,51.74
2023-06-19T05:52:00.294Z,51.87
2023-06-19T05:54:28.292Z,51.81
2023-06-19T05:56:55.634Z,51.90
2023-06-19T05:59:22.966Z,51.92
2023-06-19T06:01:51.903Z,52.01
2023-06-19T06:04:19.679Z,51.91
2023-06-19T06:06:46.987Z,51.94
2023-06-19T06:09:15.678Z,51.84
2023-06-19T06:11:43.318Z,52.03
2023-06-19T06:14:13.156Z,52.23
2023-06-19T06:16:40.908Z,52.10
2023-06-19T06:19:08.278Z,52.23
2023-06-19T06:21:36.020Z,52.16
2023-06-19T06:24:04.056Z,52.39
2023-06-19T06:26:31.454Z,52.28
2023-06-19T06:28:58.732Z,52.29
2023-06-19T06:31:26.120Z,52.36
2023-06-19T06:33:53.442Z,52.57
2023-06-19T06:36:34.075Z,52.39
2023-06-19T06:39:04.072Z,52.60
2023-06-19T06:41:31.367Z,52.63
2023-06-19T06:43:58.802Z,52.53
2023-06-19T06:46:26.264Z,52.80
2023-06-19T06:48:54.176Z,52.89
2023-06-19T06:51:23.239Z,52.75
2023-06-19T06:53:51.952Z,52.66
2023-06-19T06:56:21.921Z,52.70
2023-06-19T06:58:49.271Z,52.76
2023-06-19T07:01:16.706Z,52.79
2023-06-19T07:03:44.408Z,52.93
2023-06-19T07:06:11.759Z,53.12
2023-06-19T07:08:41.858Z,53.06
2023-06-19T07:11:09.264Z,53.15
2023-06-19T07:13:36.608Z,53.39
2023-06-19T07:16:06.142Z,53.46
2023-06-19T07:18:34.727Z,53.61
2023-06-19T07:21:03.986Z,53.65
2023-06-19T07:23:31.249Z,53.39
2023-06-19T07:25:58.808Z,53.43
2023-06-19T07:28:26.394Z,53.18
2023-06-19T07:30:53.797Z,52.93
2023-06-19T07:33:21.306Z,52.67
2023-06-19T07:35:48.748Z,52.13
2023-06-19T07:38:17.521Z,51.42
2023-06-19T07:40:45.045Z,51.31
2023-06-19T07:43:12.537Z,51.52
2023-06-19T07:45:39.878Z,51.68
2023-06-19T07:48:07.422Z,51.65
2023-06-19T07:50:34.834Z,51.02
2023-06-19T07:53:02.129Z,50.33
2023-06-19T07:55:29.989Z,50.49
2023-06-19T07:57:58.012Z,50.92
2023-06-19T08:00:26.152Z,50.71
2023-06-19T08:02:54.088Z,49.42
2023-06-19T08:05:21.518Z,48.74
2023-06-19T08:07:49.242Z,49.12
2023-06-19T08:10:16.641Z,48.33
2023-06-19T08:12:44.967Z,47.55
2023-06-19T08:15:14.885Z,47.13
2023-06-19T08:17:43.264Z,46.75
2023-06-19T08:20:11.296Z,46.60
2023-06-19T08:22:38.583Z,46.85
2023-06-19T08:25:06.758Z,46.73
2023-06-19T08:27:34.092Z,46.56
2023-06-19T08:30:01.472Z,46.76
2023-06-19T08:32:28.932Z,47.11
2023-06-19T08:34:56.419Z,47.05
2023-06-19T08:37:23.807Z,46.83
2023-06-19T08:39:51.242Z,46.67
2023-06-19T08:42:18.650Z,46.53
2023-06-19T08:44:46.812Z,46.74
2023-06-19T08:47:14.093Z,46.52
2023-06-19T08:49:41.863Z,46.38
2023-06-19T08:52:09.553Z,45.95
2023-06-19T08:54:45.497Z,45.57
2023-06-19T08:57:16.240Z,45.74
2023-06-19T08:59:52.878Z,45.95
2023-06-19T09:02:21.140Z,45.92
2023-06-19T09:04:48.527Z,45.73
2023-06-19T09:07:16.059Z,45.56
2023-06-19T09:09:49.830Z,45.72
2023-06-19T09:12:18.948Z,45.09
2023-06-19T09:14:55.771Z,44.68
2023-06-19T09:17:23.200Z,44.54
2023-06-19T09:19:57.129Z,44.38
2023-06-19T09:22:26.455Z,44.37
2023-06-19T09:24:54.011Z,44.26
2023-06-19T09:27:21.952Z,44.54
2023-06-19T09:29:51.355Z,44.45
2023-06-19T09:32:23.194Z,44.20
2023-06-19T09:34:54.026Z,44.24
2023-06-19T09:37:26.861Z,43.81
2023-06-19T09:39:59.466Z,43.84
2023-06-19T09:42:36.274Z,44.09
2023-06-19T09:45:16.340Z,47.79
2023-06-19T09:47:50.318Z,49.13
2023-06-19T09:50:18.929Z,50.10
2023-06-19T09:52:52.607Z,49.88
2023-06-19T09:55:20.740Z,48.95
2023-06-19T09:57:49.759Z,48.02
2023-06-19T10:00:23.304Z,47.54
2023-06-19T10:02:51.469Z,47.75
2023-06-19T10:05:29.896Z,47.77
2023-06-19T10:08:00.955Z,48.25
2023-06-19T10:10:32.156Z,48.73
2023-06-19T10:13:12.769Z,49.07
2023-06-19T10:15:44.844Z,50.19
2023-06-19T10:18:17.466Z,50.54
2023-06-19T10:20:46.425Z,50.74
2023-06-19T10:23:19.672Z,50.75
2023-06-19T10:26:00.011Z,51.54
2023-06-19T10:28:32.081Z,51.00
2023-06-19T10:31:07.185Z,49.93
2023-06-19T10:33:37.807Z,49.40
2023-06-19T10:36:19.101Z,50.16
2023-06-19T10:38:48.803Z,50.54
2023-06-19T10:41:23.742Z,51.22
2023-06-19T10:43:59.468Z,51.96
2023-06-19T10:46:34.598Z,51.49
2023-06-19T10:49:05.258Z,51.53
2023-06-19T10:51:36.266Z,51.89
2023-06-19T10:54:03.964Z,52.27
2023-06-19T10:56:31.331Z,51.88
2023-06-19T10:59:07.304Z,51.84
2023-06-19T11:01:39.400Z,51.81
2023-06-19T11:04:08.750Z,52.33
2023-06-19T11:06:37.833Z,53.12
2023-06-19T11:09:06.778Z,53.88
2023-06-19T11:11:38.070Z,53.93
2023-06-19T11:14:06.120Z,53.78
2023-06-19T11:16:34.638Z,54.14
2023-06-19T11:19:02.673Z,52.75
2023-06-19T11:21:37.912Z,52.00
2023-06-19T11:24:07.440Z,52.86
2023-06-19T11:26:38.869Z,53.58
2023-06-19T11:29:24.161Z,52.82
2023-06-19T11:31:52.496Z,52.56
2023-06-19T11:34:24.339Z,51.89
2023-06-19T11:36:54.395Z,50.06
2023-06-19T11:39:23.182Z,49.99
2023-06-19T11:41:52.180Z,50.09
2023-06-19T11:44:22.436Z,51.05
2023-06-19T11:46:50.554Z,52.01
2023-06-19T11:49:21.770Z,51.10
2023-06-19T11:51:49.375Z,46.31
2023-06-19T11:54:17.004Z,47.52
2023-06-19T11:56:44.688Z,48.90
2023-06-19T11:59:12.245Z,50.64
2023-06-19T12:01:39.943Z,45.10
2023-06-19T12:04:08.005Z,46.34
2023-06-19T12:06:36.787Z,48.76
2023-06-19T12:09:05.893Z,46.92
2023-06-19T12:11:33.487Z,44.47
2023-06-19T12:14:01.501Z,46.82
2023-06-19T12:16:29.720Z,48.34
2023-06-19T12:18:57.148Z,48.81
2023-06-19T12:21:35.038Z,49.72
2023-06-19T12:24:05.672Z,49.85
2023-06-19T12:26:37.547Z,50.11
2023-06-19T12:29:05.568Z,49.99
2023-06-19T12:31:33.817Z,50.14
2023-06-19T12:34:10.306Z,50.13
2023-06-19T12:36:41.268Z,50.11
2023-06-19T12:39:15.962Z,50.10
2023-06-19T12:41:43.270Z,50.31
2023-06-19T12:44:11.075Z,50.60
2023-06-19T12:46:38.731Z,50.49
2023-06-19T12:49:06.624Z,50.62
2023-06-19T12:51:35.193Z,50.62
2023-06-19T12:54:02.571Z,50.53
2023-06-19T12:56:31.074Z,50.29
2023-06-19T12:58:58.544Z,50.09
2023-06-19T13:01:25.953Z,50.13
2023-06-19T13:03:53.710Z,50.06
2023-06-19T13:06:21.132Z,50.05
2023-06-19T13:08:48.501Z,50.26
2023-06-19T13:11:15.789Z,50.29
2023-06-19T13:13:43.203Z,50.03
2023-06-19T13:16:13.070Z,49.98
2023-06-19T13:18:42.053Z,49.82
2023-06-19T13:21:09.390Z,50.01
2023-06-19T13:23:36.848Z,50.29
2023-06-19T13:26:04.378Z,50.17
2023-06-19T13:28:31.830Z,49.81
2023-06-19T13:30:59.328Z,49.85
2023-06-19T13:33:27.120Z,49.68
2023-06-19T13:35:54.630Z,49.85
2023-06-19T13:38:22.509Z,49.87
2023-06-19T13:40:49.889Z,49.80
2023-06-19T13:43:17.777Z,49.58
2023-06-19T13:45:45.193Z,49.80
2023-06-19T13:48:12.443Z,49.83
2023-06-19T13:50:39.716Z,49.55
2023-06-19T13:53:07.060Z,49.88
2023-06-19T13:55:34.352Z,49.51
2023-06-19T13:58:01.865Z,49.21
2023-06-19T14:00:29.279Z,49.25
2023-06-19T14:02:56.632Z,49.30
2023-06-19T14:05:24.080Z,49.38
2023-06-19T14:07:53.140Z,49.65
2023-06-19T14:10:20.420Z,49.37
2023-06-19T14:12:47.692Z,49.22
2023-06-19T14:15:15.086Z,49.08
2023-06-19T14:17:42.641Z,48.95
2023-06-19T14:20:12.349Z,49.04
2023-06-19T14:22:39.708Z,49.17
2023-06-19T14:25:07.339Z,49.24
2023-06-19T14:27:34.977Z,49.32
2023-06-19T14:30:02.357Z,49.10
2023-06-19T14:32:29.685Z,49.00
2023-06-19T14:34:56.977Z,48.93
2023-06-19T14:37:24.297Z,49.40
2023-06-19T14:39:51.705Z,49.56
2023-06-19T14:42:19.083Z,49.33
2023-06-19T14:44:46.373Z,49.09
2023-06-19T14:47:13.878Z,49.28
2023-06-19T14:49:41.441Z,49.18
2023-06-19T14:52:09.108Z,49.54
2023-06-19T14:54:36.419Z,49.45
2023-06-19T14:57:03.872Z,49.40
2023-06-19T14:59:31.830Z,49.13
2023-06-19T15:01:59.245Z,49.34
2023-06-19T15:04:26.784Z,49.28
2023-06-19T15:06:54.154Z,49.33
2023-06-19T15:09:21.595Z,49.50
2023-06-19T15:11:48.880Z,49.59
2023-06-19T15:14:16.272Z,49.49
2023-06-19T15:16:43.623Z,49.74
2023-06-19T15:19:11.051Z,49.54
2023-06-19T15:21:38.606Z,49.91
2023-06-19T15:24:08.232Z,49.54
2023-06-19T15:26:39.104Z,49.46
2023-06-19T15:29:07.425Z,49.85
2023-06-19T15:31:34.759Z,49.47
2023-06-19T15:34:02.189Z,49.85
2023-06-19T15:36:29.580Z,49.71
2023-06-19T15:38:56.935Z,49.83
2023-06-19T15:41:24.824Z,49.97
2023-06-19T15:43:52.940Z,50.10
2023-06-19T15:46:20.273Z,50.08
2023-06-19T15:48:48.087Z,50.24
2023-06-19T15:51:15.505Z,49.91
2023-06-19T15:53:42.817Z,49.90
2023-06-19T15:56:10.314Z,50.08
2023-06-19T15:58:37.732Z,49.87
2023-06-19T16:01:05.107Z,49.82
2023-06-19T16:03:34.219Z,49.89
2023-06-19T16:06:07.696Z,49.92
2023-06-19T16:08:36.153Z,49.80
2023-06-19T16:11:06.212Z,49.98
2023-06-19T16:13:33.780Z,50.08
2023-06-19T16:16:01.160Z,49.95
2023-06-19T16:18:28.538Z,50.00
2023-06-19T16:20:56.104Z,49.84
2023-06-19T16:23:23.497Z,49.96
2023-06-19T16:25:50.761Z,49.91
2023-06-19T16:28:18.059Z,50.13
2023-06-19T16:30:45.366Z,50.17
2023-06-19T16:33:12.718Z,50.11
2023-06-19T16:35:40.057Z,50.17
2023-06-19T16:38:07.388Z,50.11
2023-06-19T16:40:34.832Z,50.11
2023-06-19T16:43:02.254Z,50.34
2023-06-19T16:45:29.588Z,50.45
2023-06-19T16:47:57.023Z,50.39
2023-06-19T16:50:24.638Z,50.29
2023-06-19T16:52:52.206Z,50.26
2023-06-19T16:55:23.290Z,50.46
2023-06-19T16:57:54.060Z,50.67
2023-06-19T17:00:21.704Z,50.67
2023-06-19T17:02:51.072Z,50.31
2023-06-19T17:05:18.873Z,50.71
2023-06-19T17:07:46.539Z,50.52
2023-06-19T17:10:16.327Z,50.84
2023-06-19T17:12:44.155Z,50.86
2023-06-19T17:15:12.268Z,50.59
2023-06-19T17:17:39.643Z,50.60
2023-06-19T17:20:10.011Z,50.76
2023-06-19T17:22:37.371Z,50.97
2023-06-19T17:25:05.058Z,50.75
2023-06-19T17:27:32.386Z,50.82
2023-06-19T17:29:59.808Z,50.80
2023-06-19T17:32:27.079Z,50.87
2023-06-19T17:34:54.308Z,50.80
2023-06-19T17:37:22.872Z,50.95
2023-06-19T17:39:50.244Z,51.17
2023-06-19T17:42:17.598Z,50.90
2023-06-19T17:44:45.108Z,50.97
2023-06-19T17:47:13.993Z,51.40
2023-06-19T17:49:41.355Z,51.38
2023-06-19T17:52:08.793Z,51.44
2023-06-19T17:54:36.441Z,51.54
2023-06-19T17:57:04.166Z,51.25
2023-06-19T17:59:31.575Z,51.14
2023-06-19T18:01:58.892Z,51.13
2023-06-19T18:04:26.329Z,51.56
2023-06-19T18:06:53.677Z,51.24
2023-06-19T18:09:21.034Z,51.45
2023-06-19T18:11:48.350Z,51.98
2023-06-19T18:14:15.705Z,51.69
2023-06-19T18:16:44.080Z,51.99
2023-06-19T18:19:11.504Z,52.07
2023-06-19T18:21:38.709Z,52.23
2023-06-19T18:24:06.361Z,52.10
2023-06-19T18:26:33.720Z,52.28
2023-06-19T18:29:01.241Z,52.13
2023-06-19T18:31:28.531Z,52.41
2023-06-19T18:33:56.763Z,52.20
2023-06-19T18:36:25.328Z,51.86
2023-06-19T18:38:52.829Z,52.17
2023-06-19T18:41:20.133Z,52.51
2023-06-19T18:43:47.440Z,52.68
2023-06-19T18:46:14.854Z,52.53
2023-06-19T18:48:42.814Z,52.23
2023-06-19T18:51:10.038Z,52.30
2023-06-19T18:53:37.464Z,52.25
2023-06-19T18:56:04.918Z,52.54
2023-06-19T18:58:32.183Z,52.41
2023-06-19T19:00:59.525Z,52.12
2023-06-19T19:03:27.579Z,52.35
2023-06-19T19:05:55.011Z,52.68
2023-06-19T19:08:24.055Z,52.82
2023-06-19T19:10:51.380Z,52.69
2023-06-19T19:13:18.674Z,52.58
2023-06-19T19:15:45.997Z,52.51
2023-06-19T19:18:13.338Z,52.71
2023-06-19T19:20:40.755Z,52.95
2023-06-19T19:23:08.217Z,52.89
2023-06-19T19:25:35.566Z,52.76
2023-06-19T19:28:02.925Z,52.81
2023-06-19T19:30:30.468Z,53.14
2023-06-19T19:32:58.178Z,53.11
2023-06-19T19:35:25.618Z,53.13
2023-06-19T19:37:53.374Z,53.65
2023-06-19T19:40:20.769Z,53.88
2023-06-19T19:42:48.117Z,53.86
2023-06-19T19:45:15.474Z,53.74
2023-06-19T19:47:42.901Z,53.52
2023-06-19T19:50:12.439Z,53.57
2023-06-19T19:52:39.828Z,53.55
2023-06-19T19:55:07.439Z,53.80
2023-06-19T19:57:34.839Z,53.72
2023-06-19T20:00:02.778Z,53.50
2023-06-19T20:02:33.995Z,53.53
2023-06-19T20:05:01.376Z,53.81
2023-06-19T20:07:28.814Z,53.83
2023-06-19T20:09:56.180Z,53.34
2023-06-19T20:12:23.510Z,53.26
2023-06-19T20:14:50.900Z,53.49
2023-06-19T20:17:18.216Z,53.41
2023-06-19T20:19:45.549Z,53.28
2023-06-19T20:22:13.175Z,53.09
2023-06-19T20:24:40.640Z,53.36
2023-06-19T20:27:08.171Z,53.41
2023-06-19T20:29:35.623Z,53.06
2023-06-19T20:32:02.964Z,53.23
2023-06-19T20:34:30.406Z,52.32
2023-06-19T20:36:57.833Z,49.99
2023-06-19T20:39:26.004Z,49.88
2023-06-19T20:41:53.368Z,50.00
2023-06-19T20:44:20.754Z,50.75
2023-06-19T20:46:49.753Z,50.89
2023-06-19T20:49:17.201Z,51.66
2023-06-19T20:51:44.522Z,51.56
2023-06-19T20:54:12.102Z,51.65
2023-06-19T20:56:39.452Z,50.91
2023-06-19T20:59:06.917Z,50.54
2023-06-19T21:01:34.404Z,50.13
2023-06-19T21:04:02.733Z,49.58
2023-06-19T21:06:30.943Z,49.34
2023-06-19T21:09:00.470Z,49.22
2023-06-19T21:11:28.012Z,48.66
2023-06-19T21:13:55.371Z,48.85
2023-06-19T21:16:22.835Z,48.66
2023-06-19T21:18:50.366Z,48.91
2023-06-19T21:21:17.733Z,48.29
2023-06-19T21:23:45.043Z,48.26
2023-06-19T21:26:12.282Z,48.62
2023-06-19T21:28:39.599Z,48.41
2023-06-19T21:31:06.904Z,48.66
2023-06-19T21:33:34.273Z,48.51
2023-06-19T21:36:01.740Z,48.06
2023-06-19T21:38:29.189Z,47.78
2023-06-19T21:40:56.535Z,48.28
2023-06-19T21:43:23.866Z,48.29
2023-06-19T21:45:51.514Z,48.03
2023-06-19T21:48:18.907Z,47.46
2023-06-19T21:50:46.347Z,47.02
2023-06-19T21:53:14.247Z,47.10
2023-06-19T21:55:41.594Z,47.02
2023-06-19T21:58:08.963Z,46.64
2023-06-19T22:00:36.384Z,46.61
2023-06-19T22:03:05.307Z,46.92
2023-06-19T22:05:32.748Z,46.95
2023-06-19T22:08:00.011Z,46.92
2023-06-19T22:10:27.605Z,47.23
2023-06-19T22:12:55.158Z,47.17
2023-06-19T22:15:22.427Z,47.07
2023-06-19T22:17:49.784Z,47.23
2023-06-19T22:20:19.173Z,47.51
2023-06-19T22:22:47.095Z,47.70
2023-06-19T22:25:15.770Z,48.06
2023-06-19T22:27:45.548Z,48.50
2023-06-19T22:30:15.339Z,48.66
2023-06-19T22:32:43.448Z,48.58
2023-06-19T22:35:10.926Z,48.71
2023-06-19T22:37:39.030Z,49.16
2023-06-19T22:40:08.658Z,49.61
2023-06-19T22:42:39.434Z,49.81
2023-06-19T22:45:10.838Z,49.97
2023-06-19T22:47:41.796Z,50.18
2023-06-19T22:50:10.987Z,50.32
2023-06-19T22:52:38.719Z,50.22
2023-06-19T22:55:06.587Z,50.56
2023-06-19T22:57:36.024Z,50.56
2023-06-19T23:00:14.667Z,50.56
2023-06-19T23:02:43.266Z,50.60
2023-06-19T23:05:12.175Z,50.58
2023-06-19T23:07:40.865Z,50.86
2023-06-19T23:10:11.540Z,50.72
2023-06-19T23:12:38.934Z,50.71
2023-06-19T23:15:10.048Z,50.73
2023-06-19T23:17:37.530Z,50.90
2023-06-19T23:20:10.819Z,50.79
2023-06-19T23:22:38.578Z,50.93
2023-06-19T23:25:06.064Z,50.72
2023-06-19T23:27:35.454Z,50.78
2023-06-19T23:30:02.902Z,51.00
2023-06-19T23:32:30.325Z,51.12
2023-06-19T23:35:00.075Z,51.02
2023-06-19T23:37:27.963Z,50.76
2023-06-19T23:39:55.387Z,50.70
2023-06-19T23:42:22.780Z,50.64
2023-06-19T23:44:50.188Z,50.89
2023-06-19T23:47:17.494Z,50.78
2023-06-19T23:49:44.997Z,50.66
2023-06-19T23:52:12.379Z,50.53
2023-06-19T23:54:39.617Z,50.31
2023-06-19T23:57:08.980Z,50.39
2023-06-19T23:59:36.567Z,50.70
